createdAt,value
2019-05-13T00:00:29.431Z,5.97
2019-05-13T00:05:39.613Z,5.03
2019-05-13T00:10:48.473Z,2.60
2019-05-13T00:15:58.143Z,4.30
2019-05-13T00:21:05.709Z,5.23
2019-05-13T00:26:15.285Z,7.00
2019-05-13T00:31:27.132Z,5.57
2019-05-13T00:36:35.450Z,4.57
2019-05-13T00:41:45.362Z,4.57
2019-05-13T00:46:55.039Z,3.33
2019-05-13T00:52:03.879Z,3.13
2019-05-13T00:57:14.119Z,3.77
2019-05-13T01:02:24.312Z,5.00
2019-05-13T01:07:34.213Z,5.47
2019-05-13T01:12:44.218Z,4.27
2019-05-13T01:17:53.380Z,5.57
2019-05-13T01:23:04.180Z,9.93
2019-05-13T01:28:17.025Z,5.90
2019-05-13T01:33:25.482Z,4.00
2019-05-13T01:38:37.821Z,4.83
2019-05-13T01:43:46.026Z,6.10
2019-05-13T01:48:54.348Z,3.47
2019-05-13T01:54:04.181Z,3.20
2019-05-13T01:59:17.378Z,3.93
2019-05-13T02:04:27.254Z,3.53
2019-05-13T02:09:37.330Z,3.47
2019-05-13T02:14:47.687Z,4.27
2019-05-13T02:19:57.744Z,5.30
2019-05-13T02:25:24.984Z,6.00
2019-05-13T02:30:45.838Z,6.27
2019-05-13T02:36:03.014Z,5.67
2019-05-13T02:41:13.528Z,4.63
2019-05-13T02:46:27.212Z,5.87
2019-05-13T02:51:34.841Z,8.83
2019-05-13T02:56:46.962Z,7.97
2019-05-13T03:01:56.055Z,7.33
2019-05-13T03:07:07.175Z,5.77
2019-05-13T03:12:23.684Z,4.57
2019-05-13T03:17:43.406Z,5.50
2019-05-13T03:22:56.879Z,7.20
2019-05-13T03:28:26.211Z,5.40
2019-05-13T03:33:37.713Z,7.97
2019-05-13T03:39:05.303Z,3.33
2019-05-13T03:44:04.489Z,5.73
2019-05-13T03:49:18.384Z,6.27
2019-05-13T03:54:28.887Z,9.70
2019-05-13T03:59:43.567Z,6.80
2019-05-13T04:04:59.158Z,7.50
2019-05-13T04:10:07.862Z,5.73
2019-05-13T04:15:23.465Z,6.73
2019-05-13T04:20:44.525Z,7.60
2019-05-13T04:25:55.004Z,6.27
2019-05-13T04:31:04.899Z,4.30
2019-05-13T04:36:13.782Z,8.77
2019-05-13T04:41:24.447Z,8.43
2019-05-13T04:46:33.314Z,8.33
2019-05-13T04:51:42.700Z,5.23
2019-05-13T04:56:55.703Z,7.60
2019-05-13T05:02:39.917Z,5.23
2019-05-13T05:08:16.127Z,5.33
2019-05-13T05:13:59.417Z,7.03
2019-05-13T05:19:33.060Z,7.47
2019-05-13T05:25:01.634Z,6.30
2019-05-13T05:30:51.188Z,7.07
2019-05-13T05:36:34.539Z,7.27
2019-05-13T05:41:51.639Z,6.87
2019-05-13T05:47:02.745Z,4.73
2019-05-13T05:52:21.290Z,5.57
2019-05-13T05:57:31.521Z,7.83
2019-05-13T06:02:45.609Z,7.17
2019-05-13T06:08:33.550Z,9.43
2019-05-13T06:13:46.177Z,6.10
2019-05-13T06:18:56.130Z,7.23
2019-05-13T06:24:11.628Z,8.03
2019-05-13T06:29:22.268Z,9.87
2019-05-13T06:34:32.585Z,12.80
2019-05-13T06:39:42.384Z,9.10
2019-05-13T06:45:12.397Z,7.17
2019-05-13T06:50:22.031Z,6.93
2019-05-13T06:55:35.585Z,9.43
2019-05-13T07:00:46.528Z,7.47
2019-05-13T07:05:58.503Z,9.43
2019-05-13T07:11:17.639Z,8.33
2019-05-13T07:16:23.337Z,8.00
2019-05-13T07:21:33.069Z,4.60
2019-05-13T07:26:43.712Z,5.93
2019-05-13T07:31:57.029Z,5.00
2019-05-13T07:37:11.190Z,3.70
2019-05-13T07:42:17.323Z,5.57
2019-05-13T07:47:31.487Z,4.20
2019-05-13T07:52:42.444Z,5.37
2019-05-13T07:57:58.024Z,3.67
2019-05-13T08:03:12.036Z,4.03
2019-05-13T08:08:21.880Z,6.07
2019-05-13T08:13:31.588Z,3.07
2019-05-13T08:19:12.136Z,4.87
2019-05-13T08:24:22.588Z,5.30
2019-05-13T08:29:32.888Z,3.50
2019-05-13T08:34:41.764Z,4.23
2019-05-13T08:39:52.297Z,3.23
2019-05-13T08:45:05.322Z,2.50
2019-05-13T08:50:16.572Z,2.37
2019-05-13T08:55:32.188Z,1.93
2019-05-13T09:01:02.258Z,4.00
2019-05-13T09:06:12.611Z,3.50
2019-05-13T09:11:25.059Z,3.27
2019-05-13T09:16:35.807Z,3.37
2019-05-13T09:21:49.305Z,2.70
2019-05-13T09:27:01.953Z,3.97
2019-05-13T09:32:21.716Z,4.10
2019-05-13T09:37:31.753Z,3.10
2019-05-13T09:43:02.537Z,2.83
2019-05-13T09:48:24.645Z,3.00
2019-05-13T09:53:33.011Z,3.60
2019-05-13T09:58:44.728Z,2.07
2019-05-13T10:04:03.043Z,5.23
2019-05-13T10:09:34.279Z,1.70
2019-05-13T10:14:41.909Z,2.90
2019-05-13T10:19:51.854Z,2.70
2019-05-13T10:25:02.726Z,4.60
2019-05-13T10:30:12.731Z,2.57
2019-05-13T10:35:19.578Z,1.43
2019-05-13T10:40:27.903Z,1.10
2019-05-13T10:45:34.485Z,3.43
2019-05-13T10:51:04.606Z,2.07
2019-05-13T10:56:35.798Z,1.90
2019-05-13T11:02:08.893Z,1.50
2019-05-13T11:07:19.099Z,1.30
2019-05-13T11:12:33.311Z,2.77
2019-05-13T11:17:43.206Z,1.70
2019-05-13T11:22:53.213Z,1.30
2019-05-13T11:28:02.379Z,1.30
2019-05-13T11:33:18.669Z,1.57
2019-05-13T11:38:33.927Z,1.40
2019-05-13T11:43:44.876Z,0.90
2019-05-13T11:48:57.280Z,2.00
2019-05-13T11:54:13.893Z,1.03
2019-05-13T11:59:22.072Z,1.27
2019-05-13T12:04:35.244Z,1.00
2019-05-13T12:09:44.937Z,1.10
2019-05-13T12:15:22.163Z,1.30
2019-05-13T12:20:07.190Z,1.07
2019-05-13T12:25:16.880Z,2.47
2019-05-13T12:30:27.285Z,1.30
2019-05-13T12:35:35.865Z,2.07
2019-05-13T12:41:08.612Z,1.77
2019-05-13T12:46:26.279Z,1.47
2019-05-13T12:51:36.016Z,1.77
2019-05-13T12:56:46.753Z,1.70
2019-05-13T13:01:56.075Z,1.30
2019-05-13T13:07:13.180Z,1.37
2019-05-13T13:12:18.071Z,1.00
2019-05-13T13:17:37.809Z,2.83
2019-05-13T13:22:49.625Z,2.10
2019-05-13T13:28:10.712Z,2.07
2019-05-13T13:33:24.897Z,1.77
2019-05-13T13:38:42.695Z,3.53
2019-05-13T13:44:12.839Z,3.43
2019-05-13T13:49:23.038Z,3.72
2019-05-13T13:54:36.771Z,3.27
2019-05-13T14:00:26.380Z,1.90
2019-05-13T14:05:24.716Z,1.60
2019-05-13T14:10:34.525Z,2.02
2019-05-13T14:15:45.432Z,2.58
2019-05-13T14:20:55.195Z,5.65
2019-05-13T14:26:03.629Z,1.87
2019-05-13T14:31:13.530Z,2.95
2019-05-13T14:36:24.447Z,1.60
2019-05-13T14:41:32.886Z,2.00
2019-05-13T14:46:47.011Z,3.02
2019-05-13T14:51:51.785Z,3.47
2019-05-13T14:57:02.476Z,2.30
2019-05-13T15:02:11.951Z,2.22
2019-05-13T15:07:22.919Z,3.22
2019-05-13T15:12:32.291Z,3.97
2019-05-13T15:17:42.847Z,2.23
2019-05-13T15:22:51.848Z,3.40
2019-05-13T15:28:02.922Z,2.00
2019-05-13T15:33:09.179Z,3.80
2019-05-13T15:38:14.723Z,1.90
2019-05-13T15:43:24.691Z,2.90
2019-05-13T15:48:35.335Z,3.03
2019-05-13T15:53:43.825Z,4.30
2019-05-13T15:58:52.921Z,4.47
2019-05-13T16:04:03.791Z,5.33
2019-05-13T16:09:12.927Z,5.60
2019-05-13T16:14:21.885Z,4.40
2019-05-13T16:19:33.858Z,2.20
2019-05-13T16:24:41.523Z,3.33
2019-05-13T16:29:46.944Z,4.13
2019-05-13T16:34:55.202Z,2.43
2019-05-13T16:40:02.519Z,3.60
2019-05-13T16:45:12.896Z,3.17
2019-05-13T16:50:27.042Z,3.27
2019-05-13T16:55:36.768Z,2.47
2019-05-13T17:00:46.606Z,4.63
2019-05-13T17:05:57.944Z,1.97
2019-05-13T17:11:11.574Z,3.20
2019-05-13T17:16:21.192Z,2.97
2019-05-13T17:21:31.645Z,2.30
2019-05-13T17:26:38.047Z,3.53
2019-05-13T17:31:45.732Z,2.30
2019-05-13T17:36:53.980Z,2.67
2019-05-13T17:42:01.613Z,3.07
2019-05-13T17:47:08.392Z,2.80
2019-05-13T17:52:22.080Z,9.50
2019-05-13T17:57:32.067Z,4.13
2019-05-13T18:02:44.448Z,2.40
2019-05-13T18:07:52.503Z,1.30
2019-05-13T18:13:03.295Z,2.10
2019-05-13T18:18:12.142Z,3.77
2019-05-13T18:23:22.815Z,2.60
2019-05-13T18:28:31.685Z,3.00
2019-05-13T18:33:51.091Z,2.10
2019-05-13T18:38:58.212Z,1.73
2019-05-13T18:44:05.532Z,2.40
2019-05-13T18:49:14.002Z,3.30
2019-05-13T18:54:28.068Z,1.47
2019-05-13T18:59:37.109Z,5.00
2019-05-13T19:04:45.886Z,1.93
2019-05-13T19:09:53.811Z,3.63
2019-05-13T19:15:02.711Z,3.50
2019-05-13T19:20:11.663Z,1.97
2019-05-13T19:25:18.731Z,2.30
2019-05-13T19:30:25.899Z,4.87
2019-05-13T19:35:37.297Z,2.37
2019-05-13T19:40:47.700Z,6.03
2019-05-13T19:45:57.371Z,3.63
2019-05-13T19:51:05.665Z,1.50
2019-05-13T19:56:15.351Z,2.57
2019-05-13T20:01:24.583Z,2.13
2019-05-13T20:06:32.074Z,1.43
2019-05-13T20:11:41.954Z,2.77
2019-05-13T20:16:52.289Z,2.57
2019-05-13T20:22:03.744Z,2.47
2019-05-13T20:27:14.274Z,2.73
2019-05-13T20:32:22.234Z,1.80
2019-05-13T20:37:31.988Z,2.03
2019-05-13T20:42:42.030Z,3.23
2019-05-13T20:47:51.401Z,1.73
2019-05-13T20:52:58.052Z,1.63
2019-05-13T20:58:12.533Z,1.80
2019-05-13T21:03:22.138Z,3.70
2019-05-13T21:08:32.128Z,2.73
2019-05-13T21:13:43.333Z,2.43
2019-05-13T21:18:53.332Z,1.77
2019-05-13T21:24:01.566Z,2.50
2019-05-13T21:29:10.987Z,2.20
2019-05-13T21:34:22.239Z,2.63
2019-05-13T21:39:32.605Z,3.23
2019-05-13T21:44:44.136Z,2.30
2019-05-13T21:49:56.227Z,2.40
2019-05-13T21:55:02.064Z,1.97
2019-05-13T22:00:12.118Z,1.97
2019-05-13T22:05:19.527Z,3.50
2019-05-13T22:10:30.946Z,1.83
2019-05-13T22:15:38.608Z,1.83
2019-05-13T22:20:50.439Z,1.00
2019-05-13T22:25:56.161Z,2.90
2019-05-13T22:31:06.847Z,3.60
2019-05-13T22:36:21.315Z,2.73
2019-05-13T22:41:33.355Z,2.70
2019-05-13T22:46:44.769Z,1.93
2019-05-13T22:51:55.409Z,2.07
2019-05-13T22:57:01.884Z,5.97
2019-05-13T23:02:10.400Z,2.27
2019-05-13T23:07:22.343Z,3.07
2019-05-13T23:12:31.443Z,2.70
2019-05-13T23:17:41.517Z,2.60
2019-05-13T23:22:51.851Z,4.53
2019-05-13T23:27:59.069Z,3.57
2019-05-13T23:33:11.668Z,3.53
2019-05-13T23:38:18.697Z,3.27
2019-05-13T23:43:25.869Z,2.57
2019-05-13T23:48:35.637Z,4.27
2019-05-13T23:53:42.179Z,3.33
2019-05-13T23:58:51.758Z,4.07
